Terminal Aerodrome Forecast
Issued by NWS Memphis, TN

Home | Current Version | Previous Version | Text Only | Print | Product List | Glossary On
Versions: 1 2 3 4 5 6 7 8 9 10 11 12 13 14 15 16 17 18 19 20 21
000
FTUS44 KMEG 111100
TAFMKL
TAF
KMKL 111137Z 1112/1212 VRB02KT 6SM BR BKN100
      TEMPO 1112/1114 1SM BR OVC003
     FM111400 01003KT P6SM BKN100
     FM111900 01004KT P6SM SCT060 SCT250
     FM120100 00000KT P6SM SCT250
      TEMPO 1208/1212 1SM BR=

USA.gov is the U.S. government's official web portal to all federal, state and local government web resources and services.